createdAt,value
2023-03-06T00:01:16.293Z,16.83
2023-03-06T00:03:44.137Z,16.77
2023-03-06T00:06:14.257Z,16.67
2023-03-06T00:08:42.861Z,15.90
2023-03-06T00:11:15.747Z,18.03
2023-03-06T00:13:44.573Z,16.90
2023-03-06T00:16:12.177Z,19.60
2023-03-06T00:18:41.109Z,18.60
2023-03-06T00:21:10.384Z,21.30
2023-03-06T00:23:39.735Z,21.93
2023-03-06T00:26:07.680Z,16.97
2023-03-06T00:28:37.158Z,17.97
2023-03-06T00:31:04.752Z,19.17
2023-03-06T00:33:34.748Z,16.03
2023-03-06T00:36:04.564Z,17.73
2023-03-06T00:38:35.847Z,20.33
2023-03-06T00:41:11.084Z,18.80
2023-03-06T00:43:42.231Z,19.37
2023-03-06T00:46:10.879Z,20.47
2023-03-06T00:48:39.629Z,19.60
2023-03-06T00:51:08.057Z,20.10
2023-03-06T00:53:35.448Z,19.60
2023-03-06T00:56:02.890Z,18.67
2023-03-06T00:58:30.802Z,19.17
2023-03-06T01:01:01.966Z,19.00
2023-03-06T01:03:29.399Z,18.13
2023-03-06T01:06:00.146Z,17.97
2023-03-06T01:08:32.889Z,19.47
2023-03-06T01:11:02.009Z,18.40
2023-03-06T01:13:29.976Z,23.00
2023-03-06T01:16:05.703Z,20.37
2023-03-06T01:18:35.223Z,21.17
2023-03-06T01:21:04.355Z,19.83
2023-03-06T01:23:32.512Z,18.83
2023-03-06T01:26:00.558Z,19.57
2023-03-06T01:28:29.314Z,21.97
2023-03-06T01:30:56.872Z,20.43
2023-03-06T01:33:26.018Z,20.93
2023-03-06T01:35:54.106Z,22.97
2023-03-06T01:38:22.613Z,23.73
2023-03-06T01:40:53.094Z,21.17
2023-03-06T01:43:26.652Z,23.63
2023-03-06T01:46:16.818Z,24.63
2023-03-06T01:48:49.543Z,23.80
2023-03-06T01:51:17.372Z,25.83
2023-03-06T01:53:45.956Z,22.83
2023-03-06T01:56:14.947Z,24.13
2023-03-06T01:58:45.701Z,25.60
2023-03-06T02:01:16.336Z,21.83
2023-03-06T02:03:49.535Z,22.83
2023-03-06T02:06:21.654Z,21.90
2023-03-06T02:08:49.780Z,17.53
2023-03-06T02:11:19.126Z,19.40
2023-03-06T02:13:49.051Z,16.20
2023-03-06T02:16:21.787Z,17.40
2023-03-06T02:18:52.653Z,18.07
2023-03-06T02:21:23.928Z,15.83
2023-03-06T02:24:06.294Z,18.53
2023-03-06T02:26:39.805Z,19.23
2023-03-06T02:29:11.245Z,19.57
2023-03-06T02:31:39.925Z,18.37
2023-03-06T02:34:10.070Z,19.83
2023-03-06T02:36:41.294Z,21.50
2023-03-06T02:39:10.908Z,18.50
2023-03-06T02:41:43.065Z,21.43
2023-03-06T02:44:11.136Z,19.23
2023-03-06T02:46:39.451Z,22.50
2023-03-06T02:49:10.119Z,20.57
2023-03-06T02:51:39.552Z,21.00
2023-03-06T02:54:12.212Z,19.47
2023-03-06T02:56:41.248Z,19.00
2023-03-06T02:59:11.165Z,19.13
2023-03-06T03:01:39.115Z,18.87
2023-03-06T03:04:07.722Z,21.47
2023-03-06T03:06:35.210Z,20.40
2023-03-06T03:09:03.590Z,21.50
2023-03-06T03:11:32.269Z,22.17
2023-03-06T03:14:04.339Z,23.07
2023-03-06T03:16:34.420Z,19.93
2023-03-06T03:19:04.064Z,20.17
2023-03-06T03:21:33.830Z,25.50
2023-03-06T03:24:02.618Z,22.23
2023-03-06T03:26:32.054Z,21.00
2023-03-06T03:29:06.378Z,20.77
2023-03-06T03:31:35.956Z,20.87
2023-03-06T03:34:04.714Z,20.33
2023-03-06T03:36:39.206Z,20.83
2023-03-06T03:39:09.227Z,19.33
2023-03-06T03:41:38.200Z,21.87
2023-03-06T03:44:09.007Z,19.60
2023-03-06T03:46:40.442Z,19.47
2023-03-06T03:49:12.670Z,19.47
2023-03-06T03:51:41.610Z,18.23
2023-03-06T03:54:11.471Z,20.93
2023-03-06T03:56:44.424Z,21.23
2023-03-06T03:59:19.162Z,19.60
2023-03-06T04:01:59.606Z,19.20
2023-03-06T04:04:28.722Z,18.47
2023-03-06T04:06:57.975Z,17.87
2023-03-06T04:09:27.280Z,17.83
2023-03-06T04:11:54.887Z,18.00
2023-03-06T04:14:23.386Z,18.13
2023-03-06T04:16:51.896Z,20.23
2023-03-06T04:19:24.222Z,14.17
2023-03-06T04:21:52.928Z,17.13
2023-03-06T04:24:22.154Z,14.10
2023-03-06T04:26:50.718Z,16.17
2023-03-06T04:29:22.048Z,14.17
2023-03-06T04:31:50.129Z,14.27
2023-03-06T04:34:20.281Z,12.63
2023-03-06T04:36:51.509Z,15.67
2023-03-06T04:39:19.768Z,14.47
2023-03-06T04:41:51.131Z,15.60
2023-03-06T04:44:20.701Z,13.77
2023-03-06T04:46:48.714Z,14.47
2023-03-06T04:49:17.064Z,15.50
2023-03-06T04:51:45.119Z,15.33
2023-03-06T04:54:14.912Z,14.83
2023-03-06T04:56:45.317Z,14.73
2023-03-06T04:59:15.521Z,13.13
2023-03-06T05:01:44.203Z,12.70
2023-03-06T05:04:15.745Z,12.43
2023-03-06T05:06:43.205Z,12.27
2023-03-06T05:09:13.343Z,13.30
2023-03-06T05:11:42.839Z,11.67
2023-03-06T05:14:12.005Z,14.77
2023-03-06T05:16:40.928Z,14.40
2023-03-06T05:19:10.598Z,15.97
2023-03-06T05:21:40.546Z,13.97
2023-03-06T05:24:08.044Z,14.83
2023-03-06T05:26:36.240Z,14.33
2023-03-06T05:29:07.102Z,15.00
2023-03-06T05:31:34.991Z,17.10
2023-03-06T05:34:03.828Z,13.87
2023-03-06T05:36:32.016Z,14.07
2023-03-06T05:38:59.437Z,16.10
2023-03-06T05:41:26.883Z,15.53
2023-03-06T05:43:57.848Z,15.50
2023-03-06T05:46:26.894Z,13.47
2023-03-06T05:48:57.429Z,15.03
2023-03-06T05:51:25.873Z,16.63
2023-03-06T05:53:57.682Z,14.07
2023-03-06T05:56:26.978Z,16.17
2023-03-06T05:58:56.026Z,15.00
2023-03-06T06:01:28.276Z,16.17
2023-03-06T06:03:57.340Z,17.57
2023-03-06T06:06:25.315Z,15.10
2023-03-06T06:08:55.365Z,16.53
2023-03-06T06:11:24.488Z,13.77
2023-03-06T06:13:52.769Z,14.57
2023-03-06T06:16:21.376Z,18.07
2023-03-06T06:18:49.392Z,16.33
2023-03-06T06:21:20.131Z,14.77
2023-03-06T06:23:48.615Z,14.87
2023-03-06T06:26:16.065Z,14.10
2023-03-06T06:28:44.454Z,16.70
2023-03-06T06:31:13.465Z,12.27
2023-03-06T06:33:42.335Z,16.53
2023-03-06T06:36:19.145Z,18.03
2023-03-06T06:38:48.059Z,17.20
2023-03-06T06:41:53.135Z,15.63
2023-03-06T06:44:10.176Z,15.97
2023-03-06T06:49:26.172Z,19.40
2023-03-06T06:51:54.657Z,18.63
2023-03-06T06:54:26.719Z,22.07
2023-03-06T06:56:55.329Z,16.63
2023-03-06T06:59:24.868Z,16.33
2023-03-06T07:01:54.150Z,16.10
2023-03-06T07:04:22.527Z,16.57
2023-03-06T07:06:50.044Z,17.03
2023-03-06T07:09:18.306Z,18.87
2023-03-06T07:11:48.304Z,15.60
2023-03-06T07:14:17.274Z,19.77
2023-03-06T07:16:46.722Z,18.10
2023-03-06T07:19:16.650Z,20.27
2023-03-06T07:21:44.024Z,25.73
2023-03-06T07:24:11.428Z,23.87
2023-03-06T07:26:39.876Z,23.47
2023-03-06T07:29:10.657Z,17.30
2023-03-06T07:31:40.006Z,19.27
2023-03-06T07:34:07.841Z,16.40
2023-03-06T07:36:38.033Z,15.70
2023-03-06T07:39:06.195Z,16.53
2023-03-06T07:41:33.701Z,21.00
2023-03-06T07:44:03.173Z,15.90
2023-03-06T07:46:32.458Z,17.97
2023-03-06T07:49:00.941Z,17.57
2023-03-06T07:51:29.952Z,19.40
2023-03-06T07:53:58.574Z,18.40
2023-03-06T07:56:28.037Z,19.30
2023-03-06T07:58:57.177Z,18.87
2023-03-06T08:01:24.620Z,15.87
2023-03-06T08:03:55.776Z,16.83
2023-03-06T08:06:26.807Z,17.07
2023-03-06T08:08:58.216Z,16.43
2023-03-06T08:11:28.314Z,15.77
2023-03-06T08:13:57.419Z,16.17
2023-03-06T08:16:29.645Z,15.47
2023-03-06T08:18:59.537Z,19.07
2023-03-06T08:21:28.387Z,13.83
2023-03-06T08:23:56.530Z,17.83
2023-03-06T08:26:25.274Z,16.63
2023-03-06T08:28:52.874Z,15.37
2023-03-06T08:31:25.005Z,19.73
2023-03-06T08:33:52.795Z,19.27
2023-03-06T08:36:22.879Z,17.77
2023-03-06T08:38:50.674Z,15.73
2023-03-06T08:41:18.215Z,18.23
2023-03-06T08:43:45.587Z,18.80
2023-03-06T08:46:13.283Z,16.93
2023-03-06T08:48:41.987Z,19.80
2023-03-06T08:51:10.475Z,14.43
2023-03-06T08:53:43.542Z,18.17
2023-03-06T08:56:16.497Z,19.63
2023-03-06T08:58:44.921Z,18.87
2023-03-06T09:01:16.180Z,18.90
2023-03-06T09:03:43.732Z,26.13
2023-03-06T09:06:11.209Z,18.80
2023-03-06T09:08:42.871Z,20.23
2023-03-06T09:11:10.303Z,19.83
2023-03-06T09:13:39.142Z,18.17
2023-03-06T09:16:07.481Z,27.33
2023-03-06T09:18:35.459Z,22.77
2023-03-06T09:21:04.533Z,15.67
2023-03-06T09:23:33.510Z,16.53
2023-03-06T09:26:03.121Z,18.47
2023-03-06T09:28:31.690Z,13.73
2023-03-06T09:30:59.250Z,13.17
2023-03-06T09:33:28.613Z,15.93
2023-03-06T09:35:58.438Z,15.13
2023-03-06T09:38:27.686Z,20.10
2023-03-06T09:41:04.248Z,13.33
2023-03-06T09:43:33.114Z,15.47
2023-03-06T09:46:02.010Z,13.63
2023-03-06T09:48:36.337Z,15.90
2023-03-06T09:51:08.631Z,19.80
2023-03-06T09:53:45.079Z,28.63
2023-03-06T09:56:17.658Z,14.93
2023-03-06T09:58:48.999Z,18.50
2023-03-06T10:01:18.929Z,17.03
2023-03-06T10:03:49.884Z,19.07
2023-03-06T10:06:19.342Z,15.43
2023-03-06T10:08:49.642Z,16.43
2023-03-06T10:11:24.061Z,19.20
2023-03-06T10:13:56.210Z,20.67
2023-03-06T10:16:27.190Z,16.07
2023-03-06T10:18:56.916Z,19.57
2023-03-06T10:21:38.927Z,17.37
2023-03-06T10:24:15.452Z,14.70
2023-03-06T10:26:49.797Z,14.57
2023-03-06T10:29:25.339Z,12.17
2023-03-06T10:31:59.095Z,16.80
2023-03-06T10:34:30.038Z,16.60
2023-03-06T10:36:59.069Z,17.47
2023-03-06T10:39:30.803Z,16.87
2023-03-06T10:42:03.145Z,12.70
2023-03-06T10:44:31.455Z,14.70
2023-03-06T10:47:01.872Z,15.30
2023-03-06T10:49:35.032Z,13.47
2023-03-06T10:52:05.358Z,14.23
2023-03-06T10:54:35.841Z,14.97
2023-03-06T10:57:26.068Z,15.20
2023-03-06T10:59:55.783Z,14.40
2023-03-06T11:02:29.879Z,17.00
2023-03-06T11:04:58.386Z,12.93
2023-03-06T11:07:28.621Z,12.73
2023-03-06T11:10:02.186Z,13.03
2023-03-06T11:12:32.219Z,12.83
2023-03-06T11:15:23.157Z,12.77
2023-03-06T11:17:52.364Z,14.27
2023-03-06T11:20:20.768Z,15.07
2023-03-06T11:22:51.255Z,12.33
2023-03-06T11:25:21.714Z,13.33
2023-03-06T11:27:55.485Z,13.67
2023-03-06T11:30:25.660Z,15.73
2023-03-06T11:32:56.623Z,12.47
2023-03-06T11:35:27.403Z,13.30
2023-03-06T11:37:58.377Z,13.10
2023-03-06T11:40:29.120Z,13.50
2023-03-06T11:43:04.594Z,12.80
2023-03-06T11:45:37.697Z,11.33
2023-03-06T11:48:15.337Z,9.73
2023-03-06T11:50:45.656Z,13.73
2023-03-06T11:53:14.206Z,10.40
2023-03-06T11:55:47.083Z,10.93
2023-03-06T11:58:34.358Z,9.43
2023-03-06T12:01:05.735Z,12.53
2023-03-06T12:03:53.777Z,9.50
2023-03-06T12:06:30.006Z,9.37
2023-03-06T12:09:04.665Z,13.83
2023-03-06T12:11:35.813Z,9.37
2023-03-06T12:14:13.344Z,8.37
2023-03-06T12:16:45.470Z,11.97
2023-03-06T12:19:21.633Z,8.47
2023-03-06T12:21:58.312Z,9.10
2023-03-06T12:24:35.436Z,7.97
2023-03-06T12:27:09.926Z,11.30
2023-03-06T12:29:46.990Z,9.33
2023-03-06T12:32:22.236Z,8.50
2023-03-06T12:35:01.093Z,8.37
2023-03-06T12:37:32.296Z,10.40
2023-03-06T12:40:17.006Z,10.20
2023-03-06T12:42:56.396Z,9.77
2023-03-06T12:45:31.210Z,8.57
2023-03-06T12:48:01.154Z,9.33
2023-03-06T12:50:30.506Z,10.43
2023-03-06T12:53:00.429Z,12.13
2023-03-06T12:55:28.911Z,10.73
2023-03-06T12:57:57.135Z,11.00
2023-03-06T13:00:58.763Z,10.20
2023-03-06T13:03:36.442Z,8.80
2023-03-06T13:06:14.768Z,8.83
2023-03-06T13:08:56.273Z,9.73
2023-03-06T13:11:31.435Z,10.73
2023-03-06T13:13:59.636Z,11.90
2023-03-06T13:16:30.891Z,8.27
2023-03-06T13:19:03.274Z,9.23
2023-03-06T13:21:46.669Z,9.33
2023-03-06T13:24:19.449Z,10.70
2023-03-06T13:26:52.923Z,11.93
2023-03-06T13:29:48.583Z,9.77
2023-03-06T13:32:21.731Z,10.13
2023-03-06T13:34:53.327Z,11.20
2023-03-06T13:37:48.316Z,9.90
2023-03-06T13:40:32.439Z,9.17
2023-03-06T13:43:04.776Z,10.10
2023-03-06T13:45:35.569Z,9.20
2023-03-06T13:48:29.963Z,8.50
2023-03-06T13:50:55.404Z,9.10
2023-03-06T13:53:31.760Z,9.23
2023-03-06T13:56:10.342Z,11.50
2023-03-06T13:58:49.918Z,9.63
2023-03-06T14:01:27.131Z,8.60
2023-03-06T14:04:14.316Z,11.13
2023-03-06T14:06:50.780Z,8.97
2023-03-06T14:09:26.769Z,10.30
2023-03-06T14:11:55.767Z,11.20
2023-03-06T14:14:31.264Z,9.73
2023-03-06T14:16:59.441Z,9.63
2023-03-06T14:19:28.014Z,10.60
2023-03-06T14:21:57.722Z,9.63
2023-03-06T14:24:30.653Z,9.03
2023-03-06T14:26:58.005Z,8.10
2023-03-06T14:29:27.935Z,8.47
2023-03-06T14:31:56.102Z,9.77
2023-03-06T14:34:25.376Z,9.47
2023-03-06T14:36:54.719Z,7.53
2023-03-06T14:39:34.913Z,7.27
2023-03-06T14:42:12.206Z,7.43
2023-03-06T14:44:39.993Z,7.23
2023-03-06T14:47:24.217Z,9.17
2023-03-06T14:50:06.525Z,7.23
2023-03-06T14:52:34.673Z,7.57
2023-03-06T14:55:03.567Z,9.30
2023-03-06T14:57:34.677Z,7.00
2023-03-06T15:00:02.143Z,6.77
2023-03-06T15:02:32.769Z,7.57
2023-03-06T15:05:03.433Z,7.27
2023-03-06T15:07:33.416Z,8.37
2023-03-06T15:10:02.814Z,7.23
2023-03-06T15:12:38.001Z,7.07
2023-03-06T15:15:24.642Z,8.33
2023-03-06T15:17:52.732Z,7.63
2023-03-06T15:20:44.306Z,41.97
2023-03-06T15:23:23.891Z,13.07
2023-03-06T15:25:57.462Z,11.07
2023-03-06T15:28:31.725Z,26.17
2023-03-06T15:31:19.911Z,10.10
2023-03-06T15:34:15.602Z,9.63
2023-03-06T15:36:45.107Z,7.63
2023-03-06T15:39:29.356Z,9.07
2023-03-06T15:41:57.515Z,8.10
2023-03-06T15:44:29.588Z,9.87
2023-03-06T15:47:07.833Z,6.53
2023-03-06T15:49:40.051Z,7.37
2023-03-06T15:52:09.571Z,8.27
2023-03-06T15:54:38.837Z,6.40
2023-03-06T15:57:11.148Z,6.27
2023-03-06T15:59:45.774Z,5.80
2023-03-06T16:02:15.242Z,7.40
2023-03-06T16:04:42.725Z,6.20
2023-03-06T16:07:12.323Z,7.87
2023-03-06T16:09:43.354Z,6.23
2023-03-06T16:12:16.594Z,6.00
2023-03-06T16:14:50.117Z,8.80
2023-03-06T16:17:19.067Z,6.30
2023-03-06T16:19:49.147Z,7.30
2023-03-06T16:22:16.548Z,6.50
2023-03-06T16:24:44.189Z,6.60
2023-03-06T16:27:17.388Z,6.70
2023-03-06T16:29:49.639Z,6.97
2023-03-06T16:32:21.123Z,7.03
2023-03-06T16:34:49.563Z,6.83
2023-03-06T16:37:19.906Z,7.13
2023-03-06T16:39:49.297Z,8.83
2023-03-06T16:42:17.575Z,8.03
2023-03-06T16:44:45.003Z,8.00
2023-03-06T16:47:16.141Z,7.93
2023-03-06T16:49:44.744Z,7.17
2023-03-06T16:52:13.756Z,7.93
2023-03-06T16:54:44.254Z,8.00
2023-03-06T16:57:15.056Z,7.47
2023-03-06T16:59:44.584Z,7.27
2023-03-06T17:02:16.284Z,7.37
2023-03-06T17:04:44.085Z,8.40
2023-03-06T17:07:12.495Z,7.60
2023-03-06T17:09:43.092Z,8.87
2023-03-06T17:12:11.719Z,6.87
2023-03-06T17:14:39.147Z,9.57
2023-03-06T17:17:07.659Z,8.87
2023-03-06T17:19:38.394Z,7.63
2023-03-06T17:22:06.839Z,7.40
2023-03-06T17:24:39.465Z,8.33
2023-03-06T17:27:07.317Z,7.03
2023-03-06T17:29:37.045Z,9.63
2023-03-06T17:32:04.561Z,21.80
2023-03-06T17:34:31.951Z,8.20
2023-03-06T17:37:02.046Z,9.37
2023-03-06T17:39:34.268Z,9.87
2023-03-06T17:42:04.584Z,8.30
2023-03-06T17:44:33.827Z,7.93
2023-03-06T17:47:04.707Z,7.93
2023-03-06T17:49:32.296Z,7.80
2023-03-06T17:52:05.147Z,10.00
2023-03-06T17:54:35.834Z,8.17
2023-03-06T17:57:05.625Z,9.33
2023-03-06T17:59:36.986Z,8.27
2023-03-06T18:02:06.575Z,9.70
2023-03-06T18:04:35.257Z,8.40
2023-03-06T18:07:07.742Z,9.13
2023-03-06T18:09:39.708Z,8.53
2023-03-06T18:12:08.303Z,8.77
2023-03-06T18:14:37.011Z,8.20
2023-03-06T18:17:05.442Z,8.33
2023-03-06T18:19:34.734Z,9.23
2023-03-06T18:22:02.613Z,8.53
2023-03-06T18:24:30.825Z,8.10
2023-03-06T18:27:00.848Z,9.93
2023-03-06T18:29:30.690Z,8.33
2023-03-06T18:32:00.765Z,7.63
2023-03-06T18:34:28.414Z,8.17
2023-03-06T18:36:58.020Z,8.97
2023-03-06T18:39:25.989Z,9.00
2023-03-06T18:41:57.952Z,9.53
2023-03-06T18:44:27.090Z,10.33
2023-03-06T18:46:54.750Z,8.67
2023-03-06T18:49:23.895Z,11.03
2023-03-06T18:51:51.678Z,8.33
2023-03-06T18:54:19.535Z,8.93
2023-03-06T18:56:47.733Z,9.20
2023-03-06T18:59:18.554Z,9.80
2023-03-06T19:01:50.098Z,10.67
2023-03-06T19:04:18.837Z,8.47
2023-03-06T19:06:50.419Z,9.90
2023-03-06T19:09:20.423Z,8.27
2023-03-06T19:11:49.028Z,10.00
2023-03-06T19:14:16.664Z,8.57
2023-03-06T19:16:45.724Z,7.63
2023-03-06T19:19:14.484Z,8.10
2023-03-06T19:21:43.051Z,10.43
2023-03-06T19:24:14.742Z,9.17
2023-03-06T19:26:43.383Z,9.23
2023-03-06T19:29:11.342Z,9.40
2023-03-06T19:31:40.373Z,8.97
2023-03-06T19:34:08.365Z,8.53
2023-03-06T19:36:40.757Z,8.57
2023-03-06T19:39:09.434Z,9.00
2023-03-06T19:41:36.896Z,9.33
2023-03-06T19:44:05.759Z,8.67
2023-03-06T19:46:34.426Z,8.30
2023-03-06T19:49:09.519Z,9.53
2023-03-06T19:51:40.337Z,9.30
2023-03-06T19:54:07.803Z,9.43
2023-03-06T19:56:37.828Z,11.00
2023-03-06T19:59:06.068Z,8.37
2023-03-06T20:01:34.344Z,8.17
2023-03-06T20:04:03.999Z,8.10
2023-03-06T20:06:33.384Z,7.70
2023-03-06T20:09:07.197Z,9.07
2023-03-06T20:11:36.781Z,9.47
2023-03-06T20:14:04.734Z,7.90
2023-03-06T20:16:34.800Z,10.30
2023-03-06T20:19:02.893Z,8.10
2023-03-06T20:21:31.152Z,8.57
2023-03-06T20:24:03.604Z,11.63
2023-03-06T20:26:34.627Z,10.07
2023-03-06T20:29:02.544Z,10.93
2023-03-06T20:31:31.627Z,9.00
2023-03-06T20:34:01.812Z,9.70
2023-03-06T20:36:35.828Z,8.27
2023-03-06T20:39:04.369Z,9.20
2023-03-06T20:41:35.862Z,9.23
2023-03-06T20:44:04.357Z,9.37
2023-03-06T20:46:32.778Z,10.00
2023-03-06T20:49:00.715Z,9.10
2023-03-06T20:51:30.075Z,10.40
2023-03-06T20:53:58.086Z,8.00
2023-03-06T20:56:28.181Z,10.90
2023-03-06T20:58:58.635Z,8.70
2023-03-06T21:01:27.095Z,8.50
2023-03-06T21:03:57.334Z,8.70
2023-03-06T21:06:25.281Z,9.13
2023-03-06T21:08:56.156Z,10.20
2023-03-06T21:11:26.462Z,11.90
2023-03-06T21:13:54.057Z,10.47
2023-03-06T21:16:29.215Z,10.50
2023-03-06T21:18:57.628Z,11.50
2023-03-06T21:21:26.666Z,10.83
2023-03-06T21:23:54.153Z,9.27
2023-03-06T21:26:24.450Z,10.53
2023-03-06T21:28:52.995Z,9.40
2023-03-06T21:31:23.019Z,8.70
2023-03-06T21:33:55.785Z,10.87
2023-03-06T21:36:27.135Z,9.70
2023-03-06T21:38:58.128Z,10.43
2023-03-06T21:41:28.098Z,12.27
2023-03-06T21:43:57.020Z,10.10
2023-03-06T21:46:25.829Z,11.10
2023-03-06T21:48:56.449Z,10.03
2023-03-06T21:51:25.014Z,10.73
2023-03-06T21:53:53.437Z,9.40
2023-03-06T21:56:26.730Z,11.63
2023-03-06T21:58:54.098Z,11.40
2023-03-06T22:01:25.455Z,11.63
2023-03-06T22:03:53.936Z,10.60
2023-03-06T22:06:27.951Z,11.53
2023-03-06T22:08:55.719Z,11.40
2023-03-06T22:11:24.142Z,10.90
2023-03-06T22:13:54.470Z,10.20
2023-03-06T22:16:22.882Z,10.97
2023-03-06T22:18:51.904Z,11.70
2023-03-06T22:21:30.298Z,10.63
2023-03-06T22:23:58.577Z,11.57
2023-03-06T22:26:28.356Z,11.07
2023-03-06T22:28:55.754Z,11.33
2023-03-06T22:31:25.035Z,12.77
2023-03-06T22:33:55.100Z,10.93
2023-03-06T22:36:25.789Z,12.13
2023-03-06T22:38:57.976Z,11.13
2023-03-06T22:41:27.498Z,10.67
2023-03-06T22:43:58.176Z,11.33
2023-03-06T22:46:29.049Z,12.80
2023-03-06T22:48:57.586Z,10.40
2023-03-06T22:51:26.752Z,12.00
2023-03-06T22:53:56.674Z,14.23
2023-03-06T22:56:24.335Z,12.97
2023-03-06T22:58:53.519Z,12.57
2023-03-06T23:01:21.555Z,10.97
2023-03-06T23:03:50.359Z,12.53
2023-03-06T23:06:20.984Z,12.77
2023-03-06T23:08:51.406Z,11.53
2023-03-06T23:11:22.802Z,13.50
2023-03-06T23:14:11.948Z,11.13
2023-03-06T23:16:59.013Z,10.43
2023-03-06T23:19:46.269Z,11.27
2023-03-06T23:22:33.538Z,12.33
2023-03-06T23:25:20.483Z,12.93
2023-03-06T23:27:53.749Z,12.33
2023-03-06T23:30:24.514Z,12.33
2023-03-06T23:32:51.972Z,10.77
2023-03-06T23:35:19.609Z,13.17
2023-03-06T23:37:48.491Z,11.90
2023-03-06T23:40:17.440Z,12.23
2023-03-06T23:42:45.415Z,11.30
2023-03-06T23:45:15.370Z,11.53
2023-03-06T23:47:44.386Z,13.27
2023-03-06T23:50:13.938Z,12.43
2023-03-06T23:52:41.748Z,14.03
2023-03-06T23:55:09.385Z,11.90
2023-03-06T23:57:42.618Z,13.50
